createdAt,value
2022-11-19T00:01:26.676Z,13.00
2022-11-19T00:03:54.091Z,12.80
2022-11-19T00:06:24.286Z,14.43
2022-11-19T00:08:51.960Z,14.15
2022-11-19T00:11:40.420Z,12.60
2022-11-19T00:14:12.604Z,16.23
2022-11-19T00:16:39.864Z,15.88
2022-11-19T00:19:06.922Z,16.05
2022-11-19T00:21:33.658Z,17.88
2022-11-19T00:24:00.437Z,16.98
2022-11-19T00:26:27.224Z,22.48
2022-11-19T00:28:54.817Z,23.65
2022-11-19T00:31:21.779Z,21.83
2022-11-19T00:33:54.374Z,30.55
2022-11-19T00:36:22.556Z,27.52
2022-11-19T00:38:50.050Z,24.45
2022-11-19T00:41:16.908Z,19.23
2022-11-19T00:43:50.439Z,18.15
2022-11-19T00:46:19.882Z,20.77
2022-11-19T00:48:48.522Z,21.80
2022-11-19T00:51:17.347Z,20.20
2022-11-19T00:53:44.370Z,21.92
2022-11-19T00:56:14.265Z,16.55
2022-11-19T00:58:42.350Z,15.27
2022-11-19T01:01:10.964Z,14.80
2022-11-19T01:03:38.948Z,15.10
2022-11-19T01:06:06.371Z,14.40
2022-11-19T01:08:33.248Z,14.30
2022-11-19T01:11:12.202Z,14.05
2022-11-19T01:13:39.759Z,13.43
2022-11-19T01:16:12.457Z,13.75
2022-11-19T01:18:41.139Z,13.60
2022-11-19T01:21:10.765Z,11.75
2022-11-19T01:23:39.249Z,11.63
2022-11-19T01:26:07.636Z,11.65
2022-11-19T01:28:35.073Z,12.93
2022-11-19T01:31:17.265Z,11.02
2022-11-19T01:33:44.528Z,11.45
2022-11-19T01:36:17.348Z,11.13
2022-11-19T01:38:44.488Z,11.23
2022-11-19T01:41:11.421Z,12.07
2022-11-19T01:43:59.305Z,13.02
2022-11-19T01:46:44.153Z,14.43
2022-11-19T01:49:14.138Z,13.35
2022-11-19T01:51:48.661Z,12.20
2022-11-19T01:54:55.350Z,14.68
2022-11-19T01:57:22.202Z,15.95
2022-11-19T01:59:51.710Z,16.45
2022-11-19T02:02:25.373Z,16.38
2022-11-19T02:04:53.931Z,13.57
2022-11-19T02:07:26.340Z,11.55
2022-11-19T02:09:53.335Z,12.23
2022-11-19T02:12:32.533Z,11.65
2022-11-19T02:15:23.063Z,12.48
2022-11-19T02:18:10.071Z,11.07
2022-11-19T02:20:46.098Z,10.77
2022-11-19T02:23:34.011Z,10.23
2022-11-19T02:26:09.766Z,11.27
2022-11-19T02:28:36.516Z,10.82
2022-11-19T02:31:11.384Z,10.18
2022-11-19T02:33:43.150Z,10.98
2022-11-19T02:36:14.731Z,12.02
2022-11-19T02:39:12.525Z,11.90
2022-11-19T02:41:50.770Z,11.95
2022-11-19T02:44:43.487Z,10.05
2022-11-19T02:47:18.033Z,10.35
2022-11-19T02:49:45.950Z,9.57
2022-11-19T02:52:16.449Z,9.07
2022-11-19T02:54:43.361Z,8.70
2022-11-19T02:57:12.471Z,9.70
2022-11-19T03:00:20.960Z,8.95
2022-11-19T03:03:14.187Z,8.43
2022-11-19T03:05:47.285Z,7.97
2022-11-19T03:08:14.392Z,9.13
2022-11-19T03:11:14.090Z,7.95
2022-11-19T03:14:24.509Z,6.70
2022-11-19T03:17:08.068Z,7.10
2022-11-19T03:19:43.256Z,5.88
2022-11-19T03:22:28.032Z,6.50
2022-11-19T03:25:09.136Z,6.78
2022-11-19T03:27:42.483Z,8.50
2022-11-19T03:30:11.472Z,7.25
2022-11-19T03:33:02.069Z,7.80
2022-11-19T03:35:47.161Z,7.45
2022-11-19T03:38:20.152Z,8.02
2022-11-19T03:40:49.345Z,6.50
2022-11-19T03:43:19.973Z,7.60
2022-11-19T03:45:49.357Z,6.97
2022-11-19T03:48:18.726Z,7.38
2022-11-19T03:50:57.953Z,8.43
2022-11-19T03:53:25.377Z,7.80
2022-11-19T03:55:59.621Z,8.35
2022-11-19T03:58:27.522Z,10.00
2022-11-19T04:00:54.401Z,9.90
2022-11-19T04:03:21.685Z,8.73
2022-11-19T04:05:48.431Z,8.63
2022-11-19T04:08:15.233Z,8.40
2022-11-19T04:10:42.010Z,8.10
2022-11-19T04:13:08.841Z,8.10
2022-11-19T04:15:36.126Z,7.32
2022-11-19T04:18:02.911Z,8.18
2022-11-19T04:20:30.255Z,8.30
2022-11-19T04:22:57.163Z,8.18
2022-11-19T04:25:23.959Z,8.60
2022-11-19T04:27:50.720Z,9.85
2022-11-19T04:30:17.704Z,10.00
2022-11-19T04:32:44.500Z,8.95
2022-11-19T04:35:11.735Z,9.45
2022-11-19T04:37:38.926Z,9.52
2022-11-19T04:40:06.754Z,10.80
2022-11-19T04:42:33.519Z,9.07
2022-11-19T04:45:00.373Z,9.40
2022-11-19T04:47:27.232Z,8.60
2022-11-19T04:49:53.988Z,9.05
2022-11-19T04:52:20.710Z,10.02
2022-11-19T04:54:47.723Z,9.18
2022-11-19T04:57:14.762Z,8.85
2022-11-19T04:59:41.648Z,8.55
2022-11-19T05:02:08.446Z,8.55
2022-11-19T05:04:35.616Z,9.65
2022-11-19T05:07:02.564Z,8.68
2022-11-19T05:09:29.427Z,10.43
2022-11-19T05:11:56.141Z,9.60
2022-11-19T05:14:28.831Z,11.27
2022-11-19T05:16:57.010Z,9.60
2022-11-19T05:19:23.934Z,10.27
2022-11-19T05:21:51.140Z,9.43
2022-11-19T05:24:18.055Z,9.18
2022-11-19T05:26:44.884Z,8.88
2022-11-19T05:29:12.862Z,9.23
2022-11-19T05:31:39.697Z,9.07
2022-11-19T05:34:07.489Z,8.30
2022-11-19T05:36:37.592Z,8.30
2022-11-19T05:39:05.115Z,9.20
2022-11-19T05:41:34.959Z,8.57
2022-11-19T05:44:02.242Z,8.48
2022-11-19T05:46:29.992Z,8.20
2022-11-19T05:48:56.732Z,8.95
2022-11-19T05:51:23.899Z,8.60
2022-11-19T05:53:51.145Z,9.25
2022-11-19T05:56:21.095Z,9.65
2022-11-19T05:58:48.514Z,7.85
2022-11-19T06:01:15.934Z,8.60
2022-11-19T06:03:43.474Z,9.07
2022-11-19T06:06:13.296Z,9.00
2022-11-19T06:08:40.031Z,8.73
2022-11-19T06:11:07.249Z,8.73
2022-11-19T06:13:34.686Z,9.00
2022-11-19T06:16:01.659Z,7.82
2022-11-19T06:18:34.680Z,8.65
2022-11-19T06:21:01.429Z,8.18
2022-11-19T06:23:28.191Z,8.38
2022-11-19T06:25:55.083Z,9.10
2022-11-19T06:28:21.799Z,8.27
2022-11-19T06:30:48.555Z,7.95
2022-11-19T06:33:15.504Z,8.00
2022-11-19T06:35:42.706Z,7.32
2022-11-19T06:38:09.891Z,8.15
2022-11-19T06:40:36.622Z,7.65
2022-11-19T06:43:03.848Z,7.80
2022-11-19T06:45:31.011Z,8.63
2022-11-19T06:47:57.783Z,9.85
2022-11-19T06:50:24.507Z,8.85
2022-11-19T06:52:51.283Z,10.00
2022-11-19T06:55:18.647Z,9.07
2022-11-19T06:57:45.841Z,9.93
2022-11-19T07:00:13.931Z,10.15
2022-11-19T07:02:41.106Z,12.15
2022-11-19T07:05:08.557Z,11.48
2022-11-19T07:07:35.838Z,10.65
2022-11-19T07:10:02.655Z,10.80
2022-11-19T07:12:29.530Z,12.23
2022-11-19T07:15:01.089Z,11.60
2022-11-19T07:17:31.126Z,12.75
2022-11-19T07:19:57.916Z,11.88
2022-11-19T07:22:25.267Z,10.93
2022-11-19T07:24:53.739Z,12.00
2022-11-19T07:27:20.505Z,11.57
2022-11-19T07:29:47.294Z,12.75
2022-11-19T07:32:14.619Z,11.95
2022-11-19T07:34:41.780Z,12.10
2022-11-19T07:37:08.717Z,11.55
2022-11-19T07:39:35.894Z,12.90
2022-11-19T07:42:21.597Z,10.50
2022-11-19T07:44:52.200Z,13.15
2022-11-19T07:47:22.027Z,12.25
2022-11-19T07:49:48.767Z,10.98
2022-11-19T07:52:15.579Z,12.27
2022-11-19T07:54:42.393Z,12.75
2022-11-19T07:57:09.445Z,14.07
2022-11-19T07:59:36.208Z,10.60
2022-11-19T08:02:03.481Z,11.80
2022-11-19T08:04:30.396Z,10.55
2022-11-19T08:06:57.242Z,11.75
2022-11-19T08:09:24.504Z,11.95
2022-11-19T08:11:51.306Z,12.15
2022-11-19T08:14:18.107Z,12.50
2022-11-19T08:17:03.553Z,14.27
2022-11-19T08:19:30.313Z,11.10
2022-11-19T08:21:57.116Z,12.70
2022-11-19T08:24:24.279Z,9.57
2022-11-19T08:26:51.576Z,9.30
2022-11-19T08:29:21.135Z,11.32
2022-11-19T08:31:48.761Z,9.88
2022-11-19T08:34:17.386Z,9.27
2022-11-19T08:36:44.911Z,11.70
2022-11-19T08:39:11.841Z,10.88
2022-11-19T08:41:57.496Z,9.52
2022-11-19T08:44:24.297Z,9.73
2022-11-19T08:46:51.110Z,8.02
2022-11-19T08:49:18.057Z,5.32
2022-11-19T08:51:47.591Z,4.72
2022-11-19T08:54:14.523Z,4.93
2022-11-19T08:56:41.405Z,5.43
2022-11-19T08:59:08.418Z,5.53
2022-11-19T09:01:35.584Z,5.28
2022-11-19T09:04:02.732Z,4.45
2022-11-19T09:06:29.592Z,3.97
2022-11-19T09:08:56.438Z,4.35
2022-11-19T09:11:23.553Z,5.10
2022-11-19T09:13:50.405Z,4.60
2022-11-19T09:16:17.388Z,5.05
2022-11-19T09:18:44.609Z,5.55
2022-11-19T09:21:12.903Z,5.30
2022-11-19T09:23:41.372Z,6.15
2022-11-19T09:26:13.477Z,6.25
2022-11-19T09:28:41.250Z,5.90
2022-11-19T09:31:14.793Z,10.20
2022-11-19T09:33:43.977Z,7.55
2022-11-19T09:36:12.209Z,6.68
2022-11-19T09:38:40.866Z,7.07
2022-11-19T09:41:13.943Z,6.90
2022-11-19T09:44:02.100Z,6.78
2022-11-19T09:47:16.841Z,7.40
2022-11-19T09:49:57.678Z,7.10
2022-11-19T09:52:25.413Z,8.05
2022-11-19T09:55:18.713Z,6.70
2022-11-19T09:57:51.672Z,8.07
2022-11-19T10:00:30.894Z,8.02
2022-11-19T10:02:58.879Z,8.95
2022-11-19T10:05:51.720Z,9.75
2022-11-19T10:08:37.173Z,8.82
2022-11-19T10:11:21.032Z,9.02
2022-11-19T10:14:12.760Z,9.35
2022-11-19T10:16:39.633Z,9.20
2022-11-19T10:19:34.184Z,9.38
2022-11-19T10:22:19.499Z,8.98
2022-11-19T10:25:00.630Z,10.57
2022-11-19T10:27:57.344Z,11.90
2022-11-19T10:30:28.762Z,9.68
2022-11-19T10:33:17.080Z,10.52
2022-11-19T10:35:51.591Z,10.05
2022-11-19T10:38:36.329Z,10.52
2022-11-19T10:41:20.721Z,11.27
2022-11-19T10:44:11.182Z,11.85
2022-11-19T10:46:38.141Z,12.20
2022-11-19T10:49:10.478Z,12.38
2022-11-19T10:51:40.878Z,11.57
2022-11-19T10:54:22.589Z,12.15
2022-11-19T10:56:51.486Z,13.90
2022-11-19T10:59:23.750Z,14.57
2022-11-19T11:02:12.655Z,13.65
2022-11-19T11:05:00.768Z,12.75
2022-11-19T11:07:54.870Z,14.20
2022-11-19T11:10:33.980Z,15.27
2022-11-19T11:13:57.245Z,13.77
2022-11-19T11:16:44.662Z,12.65
2022-11-19T11:19:21.978Z,14.25
2022-11-19T11:21:53.420Z,13.18
2022-11-19T11:24:21.638Z,14.93
2022-11-19T11:26:48.583Z,26.67
2022-11-19T11:29:15.291Z,16.13
2022-11-19T11:31:44.810Z,11.75
2022-11-19T11:34:31.660Z,11.77
2022-11-19T11:37:00.942Z,13.52
2022-11-19T11:39:52.281Z,20.33
2022-11-19T11:42:20.037Z,13.07
2022-11-19T11:45:07.887Z,13.15
2022-11-19T11:47:39.711Z,11.20
2022-11-19T11:50:18.142Z,11.88
2022-11-19T11:52:51.924Z,10.82
2022-11-19T11:55:24.974Z,11.48
2022-11-19T11:57:54.676Z,13.80
2022-11-19T12:00:41.422Z,13.75
2022-11-19T12:03:11.543Z,13.35
2022-11-19T12:06:03.884Z,12.15
2022-11-19T12:08:52.747Z,15.88
2022-11-19T12:11:56.095Z,13.75
2022-11-19T12:14:23.250Z,10.90
2022-11-19T12:17:35.293Z,10.30
2022-11-19T12:20:21.616Z,11.10
2022-11-19T12:23:12.876Z,11.15
2022-11-19T12:26:02.936Z,11.25
2022-11-19T12:29:01.536Z,16.45
2022-11-19T12:32:13.489Z,18.45
2022-11-19T12:35:02.005Z,17.38
2022-11-19T12:37:50.242Z,13.90
2022-11-19T12:41:09.454Z,13.88
2022-11-19T12:43:57.071Z,11.18
2022-11-19T12:46:32.317Z,10.45
2022-11-19T12:48:59.080Z,13.60
2022-11-19T12:51:44.156Z,23.20
2022-11-19T12:54:35.136Z,15.27
2022-11-19T12:57:19.110Z,9.32
2022-11-19T13:00:02.669Z,10.05
2022-11-19T13:02:40.197Z,9.40
2022-11-19T13:05:22.546Z,9.40
2022-11-19T13:08:01.645Z,9.50
2022-11-19T13:10:43.619Z,9.85
2022-11-19T13:13:16.801Z,10.80
2022-11-19T13:15:48.264Z,10.25
2022-11-19T13:18:18.180Z,10.80
2022-11-19T13:20:58.010Z,10.40
2022-11-19T13:23:30.478Z,16.75
2022-11-19T13:26:23.123Z,14.25
2022-11-19T13:28:59.738Z,12.43
2022-11-19T13:31:48.987Z,9.95
2022-11-19T13:34:30.424Z,11.48
2022-11-19T13:37:37.927Z,13.27
2022-11-19T13:40:32.477Z,12.50
2022-11-19T13:43:31.951Z,13.57
2022-11-19T13:46:23.418Z,11.95
2022-11-19T13:49:00.712Z,10.50
2022-11-19T13:51:43.030Z,11.90
2022-11-19T13:54:26.749Z,13.52
2022-11-19T13:56:57.107Z,23.40
2022-11-19T13:59:36.721Z,29.63
2022-11-19T14:02:24.875Z,20.73
2022-11-19T14:05:04.086Z,16.23
2022-11-19T14:07:37.772Z,13.95
2022-11-19T14:10:32.119Z,13.20
2022-11-19T14:13:06.752Z,15.07
2022-11-19T14:16:11.090Z,14.95
2022-11-19T14:19:05.649Z,23.50
2022-11-19T14:21:54.209Z,19.25
2022-11-19T14:24:45.296Z,30.48
2022-11-19T14:27:18.343Z,32.47
2022-11-19T14:29:45.477Z,18.33
2022-11-19T14:32:12.190Z,19.52
2022-11-19T14:35:02.583Z,16.35
2022-11-19T14:37:45.602Z,15.07
2022-11-19T14:40:23.287Z,15.75
2022-11-19T14:43:20.810Z,20.48
2022-11-19T14:46:03.011Z,13.85
2022-11-19T14:48:31.250Z,12.82
2022-11-19T14:51:11.062Z,12.93
2022-11-19T14:53:48.461Z,14.50
2022-11-19T14:56:17.094Z,13.77
2022-11-19T14:59:20.859Z,12.38
2022-11-19T15:02:04.849Z,12.55
2022-11-19T15:04:42.009Z,20.45
2022-11-19T15:07:12.491Z,22.65
2022-11-19T15:10:10.532Z,20.90
2022-11-19T15:12:44.052Z,26.15
2022-11-19T15:15:20.285Z,21.95
2022-11-19T15:17:59.156Z,26.67
2022-11-19T15:20:50.923Z,27.13
2022-11-19T15:23:43.716Z,22.60
2022-11-19T15:26:52.600Z,26.25
2022-11-19T15:29:50.221Z,27.85
2022-11-19T15:32:30.842Z,23.35
2022-11-19T15:35:12.790Z,31.38
2022-11-19T15:38:19.932Z,24.38
2022-11-19T15:40:48.412Z,27.23
2022-11-19T15:43:37.827Z,28.05
2022-11-19T15:46:11.455Z,28.13
2022-11-19T15:48:40.979Z,24.00
2022-11-19T15:51:13.256Z,32.45
2022-11-19T15:53:58.348Z,30.75
2022-11-19T15:56:26.800Z,26.30
2022-11-19T15:58:53.900Z,33.20
2022-11-19T16:01:22.110Z,32.60
2022-11-19T16:03:51.951Z,32.15
2022-11-19T16:06:39.746Z,26.75
2022-11-19T16:09:07.290Z,27.58
2022-11-19T16:11:55.390Z,27.58
2022-11-19T16:14:42.033Z,25.00
2022-11-19T16:17:39.766Z,26.27
2022-11-19T16:20:10.110Z,29.25
2022-11-19T16:22:44.683Z,25.80
2022-11-19T16:25:21.849Z,22.35
2022-11-19T16:27:48.643Z,23.35
2022-11-19T16:30:24.391Z,20.05
2022-11-19T16:32:51.371Z,26.33
2022-11-19T16:35:32.334Z,22.33
2022-11-19T16:38:01.559Z,23.50
2022-11-19T16:40:49.306Z,32.38
2022-11-19T16:43:17.142Z,27.58
2022-11-19T16:45:46.780Z,31.02
2022-11-19T16:48:43.034Z,25.00
2022-11-19T16:51:40.388Z,24.30
2022-11-19T16:54:11.295Z,26.30
2022-11-19T16:56:45.836Z,23.88
2022-11-19T16:59:25.614Z,25.05
2022-11-19T17:01:56.032Z,25.27
2022-11-19T17:04:30.036Z,29.20
2022-11-19T17:06:58.633Z,28.73
2022-11-19T17:09:37.888Z,26.15
2022-11-19T17:12:22.772Z,19.30
2022-11-19T17:14:52.834Z,29.65
2022-11-19T17:17:41.674Z,21.75
2022-11-19T17:20:27.351Z,20.63
2022-11-19T17:22:54.443Z,19.02
2022-11-19T17:25:21.264Z,17.58
2022-11-19T17:27:55.315Z,14.70
2022-11-19T17:30:30.926Z,13.63
2022-11-19T17:33:03.854Z,13.38
2022-11-19T17:35:30.959Z,13.60
2022-11-19T17:37:59.890Z,18.13
2022-11-19T17:40:26.882Z,26.60
2022-11-19T17:43:12.196Z,17.30
2022-11-19T17:45:38.926Z,19.15
2022-11-19T17:48:23.344Z,21.08
2022-11-19T17:50:51.647Z,24.38
2022-11-19T17:53:19.264Z,18.50
2022-11-19T17:55:47.800Z,21.75
2022-11-19T17:58:14.928Z,19.60
2022-11-19T18:00:42.314Z,20.33
2022-11-19T18:03:16.126Z,17.35
2022-11-19T18:05:47.508Z,13.85
2022-11-19T18:08:17.746Z,14.43
2022-11-19T18:10:46.822Z,12.70
2022-11-19T18:13:18.858Z,11.02
2022-11-19T18:15:45.632Z,11.85
2022-11-19T18:18:12.435Z,13.15
2022-11-19T18:20:39.758Z,13.50
2022-11-19T18:23:06.510Z,18.65
2022-11-19T18:25:33.648Z,17.02
2022-11-19T18:28:00.402Z,13.77
2022-11-19T18:30:27.184Z,21.55
2022-11-19T18:32:54.316Z,21.67
2022-11-19T18:35:22.497Z,20.58
2022-11-19T18:37:49.416Z,16.80
2022-11-19T18:40:16.236Z,20.15
2022-11-19T18:43:03.171Z,17.50
2022-11-19T18:45:30.745Z,19.08
2022-11-19T18:48:00.717Z,23.48
2022-11-19T18:50:30.541Z,14.93
2022-11-19T18:52:59.539Z,17.63
2022-11-19T18:55:26.621Z,16.48
2022-11-19T18:57:54.406Z,16.55
2022-11-19T19:00:21.277Z,16.15
2022-11-19T19:02:48.276Z,16.45
2022-11-19T19:05:15.267Z,15.70
2022-11-19T19:07:42.119Z,22.83
2022-11-19T19:10:09.753Z,21.05
2022-11-19T19:12:37.016Z,20.27
2022-11-19T19:15:04.024Z,20.20
2022-11-19T19:17:31.299Z,12.05
2022-11-19T19:20:01.428Z,13.48
2022-11-19T19:22:29.385Z,18.27
2022-11-19T19:24:58.340Z,20.30
2022-11-19T19:27:26.012Z,17.85
2022-11-19T19:29:52.826Z,18.15
2022-11-19T19:32:20.400Z,14.15
2022-11-19T19:34:47.660Z,13.60
2022-11-19T19:37:14.476Z,13.35
2022-11-19T19:39:41.202Z,14.90
2022-11-19T19:42:08.126Z,13.57
2022-11-19T19:44:35.068Z,11.48
2022-11-19T19:47:02.330Z,13.75
2022-11-19T19:49:29.096Z,12.70
2022-11-19T19:51:56.533Z,11.80
2022-11-19T19:54:23.724Z,9.55
2022-11-19T19:56:53.152Z,8.52
2022-11-19T19:59:20.178Z,9.93
2022-11-19T20:01:47.511Z,11.10
2022-11-19T20:04:14.502Z,18.20
2022-11-19T20:06:45.366Z,11.40
2022-11-19T20:09:12.729Z,9.13
2022-11-19T20:11:40.010Z,10.43
2022-11-19T20:14:06.944Z,9.25
2022-11-19T20:16:35.155Z,7.80
2022-11-19T20:19:02.475Z,8.30
2022-11-19T20:21:33.918Z,6.28
2022-11-19T20:24:00.971Z,5.15
2022-11-19T20:26:30.145Z,6.28
2022-11-19T20:28:59.381Z,5.40
2022-11-19T20:31:27.025Z,6.10
2022-11-19T20:33:57.181Z,7.60
2022-11-19T20:36:26.611Z,7.57
2022-11-19T20:38:53.895Z,7.65
2022-11-19T20:41:40.597Z,5.15
2022-11-19T20:44:22.615Z,5.55
2022-11-19T20:46:57.220Z,6.68
2022-11-19T20:49:26.159Z,8.73
2022-11-19T20:51:54.537Z,9.32
2022-11-19T20:54:22.244Z,9.68
2022-11-19T20:56:51.095Z,7.10
2022-11-19T20:59:19.284Z,9.23
2022-11-19T21:01:49.469Z,10.07
2022-11-19T21:04:17.323Z,10.00
2022-11-19T21:06:44.252Z,9.18
2022-11-19T21:09:11.921Z,11.80
2022-11-19T21:11:38.869Z,10.15
2022-11-19T21:14:05.732Z,13.85
2022-11-19T21:16:33.014Z,10.02
2022-11-19T21:19:00.136Z,9.20
2022-11-19T21:21:27.512Z,10.43
2022-11-19T21:23:55.173Z,13.35
2022-11-19T21:26:24.206Z,8.98
2022-11-19T21:28:54.203Z,9.73
2022-11-19T21:31:38.025Z,9.65
2022-11-19T21:34:17.883Z,10.10
2022-11-19T21:36:45.656Z,10.30
2022-11-19T21:39:12.617Z,8.63
2022-11-19T21:41:39.464Z,8.25
2022-11-19T21:44:06.633Z,8.02
2022-11-19T21:46:34.633Z,7.65
2022-11-19T21:49:02.290Z,7.35
2022-11-19T21:51:29.153Z,9.32
2022-11-19T21:53:57.299Z,8.70
2022-11-19T21:56:25.573Z,7.38
2022-11-19T21:58:52.414Z,6.53
2022-11-19T22:01:19.481Z,6.50
2022-11-19T22:03:46.829Z,6.15
2022-11-19T22:06:13.743Z,5.68
2022-11-19T22:08:41.826Z,8.25
2022-11-19T22:11:28.705Z,7.53
2022-11-19T22:14:04.621Z,6.70
2022-11-19T22:16:37.569Z,6.03
2022-11-19T22:19:05.691Z,5.53
2022-11-19T22:21:33.469Z,5.78
2022-11-19T22:24:00.520Z,5.80
2022-11-19T22:26:28.072Z,6.75
2022-11-19T22:28:55.341Z,6.07
2022-11-19T22:31:23.277Z,5.53
2022-11-19T22:33:51.800Z,5.60
2022-11-19T22:36:20.330Z,4.85
2022-11-19T22:38:47.649Z,3.80
2022-11-19T22:41:19.456Z,4.55
2022-11-19T22:43:47.041Z,4.45
2022-11-19T22:46:14.746Z,3.55
2022-11-19T22:48:41.983Z,3.88
2022-11-19T22:51:14.304Z,3.70
2022-11-19T22:53:42.043Z,3.67
2022-11-19T22:56:11.635Z,3.53
2022-11-19T22:58:42.368Z,3.10
2022-11-19T23:01:30.701Z,2.58
2022-11-19T23:03:59.344Z,2.45
2022-11-19T23:06:26.229Z,2.42
2022-11-19T23:08:53.154Z,2.90
2022-11-19T23:11:41.599Z,3.03
2022-11-19T23:14:11.527Z,3.05
2022-11-19T23:16:39.174Z,2.60
2022-11-19T23:19:06.532Z,2.80
2022-11-19T23:21:33.532Z,3.67
2022-11-19T23:24:01.145Z,2.50
2022-11-19T23:26:30.058Z,3.83
2022-11-19T23:28:57.423Z,3.38
2022-11-19T23:31:29.316Z,4.55
2022-11-19T23:33:59.306Z,3.35
2022-11-19T23:36:32.857Z,2.97
2022-11-19T23:38:59.920Z,3.00
2022-11-19T23:41:28.334Z,4.32
2022-11-19T23:43:55.820Z,4.00
2022-11-19T23:46:25.819Z,4.15
2022-11-19T23:48:53.002Z,3.10
2022-11-19T23:51:22.470Z,2.22
2022-11-19T23:53:50.481Z,2.47
2022-11-19T23:56:20.812Z,2.60
2022-11-19T23:58:48.243Z,1.90
